Pronóstico
Mapa Interactivo
Aviación
Climatología
Hidrometeorología
Agrometeorología
Estaciones Automáticas
Transparencia
OMM WMO
Portada
Institución
Noticias
Imágenes
Tsunami
Historial
Boletines y Alertas
Contactos
Buscar Contenidos
Informe del Tiempo

SADR31 MDSD 192100Z
METAR

METAR MDPP 192100Z 08010KT 9999 SCT020 BKN070 24/23 Q1016 RERA=
METAR MDST 192100Z 08013KT 8000 VCSH FEW018CB SCT018 BKN300 25/22
Q1017 CB/E/SE/SW/W=
METAR MDPC 192100Z 08008KT 9999 FEW022 BKN300 28/22 Q1018=
METAR MDBH 192100Z 11012KT 9999 FEW018CB SCT020 SCT080 28/23 Q1017
CB/W/NW=
METAR MDJB 192100Z 00000KT 9999 SCT018 28/24 Q1017=
METAR MDSD 192100Z 11008KT 9999 FEW018CB FEW020 SCT300
METAR MDLR 192100Z 14012KT 8000 VCSH FEW018CB SCT020 SCT070 29/22
Q1018 CB/NW=
METAR MDCY 192100Z 00000KT 9999 SCT018 BKN300 26/23 Q1019=
METAR MDAB 192100Z 04006KT 9999 BKN018 BKN070 26/23 Q1020=